Merrimac — WDC8717 — position and weather

sailwx.info

Track history (hours):
 
Tides and Currents Weather Stations Pressure Air Temp Water Temp Dewpoint Dewpoint Depression Visibility Wind Speed Wind Dir Waves Ship Positions

Merrimac

Owner: Intracoastal Marine, Inc., Coinjock, NC. More information available from US FCC via Universal Licensing System and Coast Guard Vessel Documentation Center.

Last reported at 2018-Jan-20 21:00 UTC. Time now 2018-Jan-20 21:02 UTC.
Position N 36°45' W 076°18'.

; draft 3 m.

Type: Tug. MMSI: 367091990.

Date/timePositionNaut miles runAvg speedWind from/ knotsBaromVisibWave heightAir tempDewpointWater temp
2018-Jan-20 21:00N 36°45' W 076°18'2 4.1
2018-Jan-20 20:31N 36°47' W 076°18'2 3.9
2018-Jan-20 20:00N 36°49' W 076°17'2 4.2
2018-Jan-20 19:30N 36°51' W 076°18'3 5.7
2018-Jan-20 18:59N 36°53' W 076°20'114 6.6
2018-Jan-20 01:47N 38°47' W 076°28'2 6.5
2018-Jan-20 01:27N 38°49' W 076°27'3 6.1
2018-Jan-20 01:00N 38°51' W 076°26'3 5.8
2018-Jan-20 00:30N 38°54' W 076°25'3 5.7
2018-Jan-20 00:00N 38°57' W 076°24'3 5.9
2018-Jan-19 23:30N 38°60' W 076°23'3 5.6
2018-Jan-19 23:01N 39°02' W 076°23'4 5.8
2018-Jan-19 22:22N 39°06' W 076°23'2 6.1
2018-Jan-19 22:01N 39°08' W 076°24'3 6.0
2018-Jan-19 21:30N 39°11' W 076°26'3 6.2
2018-Jan-19 21:01N 39°12' W 076°30'3 6.3
2018-Jan-19 20:30N 39°13' W 076°33'1 3.0
2018-Jan-19 20:00N 39°12' W 076°35'0 0.0
2018-Jan-19 19:31N 39°12' W 076°35'0 0.0
2018-Jan-19 19:00N 39°12' W 076°35'0 0.0
2018-Jan-19 18:30N 39°12' W 076°35'0 0.0
2018-Jan-19 18:01N 39°12' W 076°35'0 0.0
2018-Jan-19 17:31N 39°12' W 076°35'0 0.0
2018-Jan-19 17:00N 39°12' W 076°35'0 0.0
2018-Jan-19 16:30N 39°12' W 076°35'0 0.0
2018-Jan-19 16:01N 39°12' W 076°35'3 5.8
2018-Jan-19 15:31N 39°12' W 076°31'5 8.6
2018-Jan-19 14:59N 39°11' W 076°26'4 6.7
2018-Jan-19 14:25N 39°07' W 076°24'4 7.6
2018-Jan-19 13:53N 39°03' W 076°23'3 7.4
2018-Jan-19 13:30N 39°00' W 076°23'4 7.7
2018-Jan-19 13:00N 38°57' W 076°24'4 7.8
2018-Jan-19 12:27N 38°53' W 076°26'115 7.3
2018-Jan-18 20:44N 36°58' W 076°20'2 8.5
2018-Jan-18 20:31N 36°56' W 076°20'4 7.9
2018-Jan-18 20:00N 36°52' W 076°20'3 6.5
2018-Jan-18 19:30N 36°49' W 076°17'3 5.4
2018-Jan-18 19:00N 36°47' W 076°19'0 0.5
2018-Jan-18 18:30N 36°47' W 076°19'2 4.2
2018-Jan-18 18:01N 36°49' W 076°17'0 0.0
2018-Jan-18 17:30N 36°49' W 076°17'0 0.0
2018-Jan-18 17:00N 36°49' W 076°17'0 0.0
2018-Jan-18 16:30N 36°49' W 076°17'0 0.0
2018-Jan-18 16:00N 36°49' W 076°17'1 1.2
2018-Jan-18 15:30N 36°49' W 076°18'0 0.3
2018-Jan-18 15:00N 36°49' W 076°17'0 0.0
2018-Jan-18 14:30N 36°49' W 076°17'0 0.0
2018-Jan-18 14:00N 36°49' W 076°17'1 1.3
2018-Jan-18 13:30N 36°49' W 076°17'0 0.0
2018-Jan-18 13:00N 36°48' W 076°17'0 0.0
2018-Jan-18 12:30N 36°48' W 076°17'0 0.0
2018-Jan-18 12:00N 36°49' W 076°17'0 0.0
2018-Jan-18 11:30N 36°49' W 076°17'0 0.0
2018-Jan-18 11:00N 36°48' W 076°17'0 0.0
2018-Jan-18 10:30N 36°49' W 076°17'0 0.0
2018-Jan-18 10:01N 36°49' W 076°17'0 0.0
2018-Jan-18 09:31N 36°49' W 076°17'0 0.0
2018-Jan-18 09:01N 36°49' W 076°17'0 0.0
2018-Jan-18 08:30N 36°49' W 076°17'0 0.0
2018-Jan-18 08:00N 36°49' W 076°17'0 0.0
2018-Jan-18 07:30N 36°49' W 076°17'0 0.0
2018-Jan-18 07:00N 36°49' W 076°17'0 0.0
2018-Jan-18 06:30N 36°49' W 076°17'0 0.0
2018-Jan-18 06:01N 36°48' W 076°17'0 0.0
2018-Jan-18 05:30N 36°49' W 076°17'0 0.0
2018-Jan-18 05:01N 36°48' W 076°17'0 0.0
2018-Jan-18 04:30N 36°49' W 076°17'0 0.0
2018-Jan-18 04:00N 36°49' W 076°17'0 0.0
2018-Jan-18 03:30N 36°49' W 076°17'0 0.0
2018-Jan-18 03:00N 36°49' W 076°17'0 0.0
2018-Jan-18 02:30N 36°49' W 076°17'0 0.0
2018-Jan-18 02:00N 36°49' W 076°17'0 0.0
2018-Jan-18 01:31N 36°49' W 076°17'0 0.0
2018-Jan-18 01:01N 36°49' W 076°17'0 0.0
2018-Jan-18 00:01N 36°49' W 076°17'0 0.0
2018-Jan-17 23:57N 36°49' W 076°17'  
2018-Jan-12 15:00N 36°50' W 076°16'1 1.0
2018-Jan-12 14:30N 36°50' W 076°17'2 3.2
2018-Jan-12 14:00N 36°51' W 076°19'1 1.1
2018-Jan-12 13:30N 36°51' W 076°19'0 0.0
2018-Jan-12 13:00N 36°51' W 076°19'0 0.0
2018-Jan-12 12:30N 36°51' W 076°19'3 5.5
2018-Jan-12 12:00N 36°49' W 076°17'1 2.3
2018-Jan-12 11:30N 36°50' W 076°18'2 0.3
2018-Jan-12 06:08N 36°52' W 076°19'0 0.2
2018-Jan-12 04:32N 36°51' W 076°19'0 8.8
2018-Jan-12 04:30N 36°51' W 076°18'2 4.6
2018-Jan-12 04:00N 36°49' W 076°17'0 0.0
2018-Jan-12 03:30N 36°49' W 076°17'0 0.1
2018-Jan-12 03:00N 36°49' W 076°17'1 1.3
2018-Jan-12 02:30N 36°48' W 076°17'0 0.0
2018-Jan-12 02:00N 36°48' W 076°17'0 0.0
2018-Jan-12 01:30N 36°48' W 076°17'0 0.0
2018-Jan-12 01:00N 36°48' W 076°17'0 0.0
2018-Jan-12 00:30N 36°48' W 076°17'0 0.0
2018-Jan-12 00:00N 36°48' W 076°17'0 0.0
2018-Jan-11 23:30N 36°48' W 076°17'2 4.0
2018-Jan-11 23:00N 36°47' W 076°18'2 3.0
2018-Jan-11 22:30N 36°45' W 076°18'2 3.2
2018-Jan-11 22:00N 36°47' W 076°19'3 6.0
2018-Jan-11 21:30N 36°50' W 076°18'3 6.3
2018-Jan-11 20:58N 36°52' W 076°20'44 7.1
2018-Jan-11 14:45N 37°36' W 076°11'66 6.8
2018-Jan-11 05:01N 38°41' W 076°28'0 6.8
2018-Jan-11 04:58N 38°41' W 076°28'3 6.8
2018-Jan-11 04:30N 38°44' W 076°28'3 6.8
2018-Jan-11 04:00N 38°47' W 076°28'4 6.9
2018-Jan-11 03:30N 38°51' W 076°27'3 6.6
2018-Jan-11 03:00N 38°54' W 076°25'3 6.8
2018-Jan-11 02:30N 38°57' W 076°24'4 7.0
2018-Jan-11 02:00N 39°00' W 076°23'3 6.8
2018-Jan-11 01:30N 39°04' W 076°23'3 6.8
2018-Jan-11 01:00N 39°07' W 076°24'3 6.6
2018-Jan-11 00:30N 39°10' W 076°26'3 6.1
2018-Jan-11 00:00N 39°12' W 076°29'3 6.4
2018-Jan-10 23:30N 39°14' W 076°32'3 6.6
2018-Jan-10 23:00N 39°16' W 076°35'0 0.3
2018-Jan-10 22:30N 39°16' W 076°35'0 0.0
2018-Jan-10 22:00N 39°16' W 076°35'0 0.0
2018-Jan-10 21:30N 39°16' W 076°35'0 0.0
2018-Jan-10 21:00N 39°16' W 076°35'  
Track history (hours):
 
Tides and Currents Weather Stations Pressure Air Temp Water Temp Dewpoint Dewpoint Depression Visibility Wind Speed Wind Dir Waves Ship Positions

Merrimac

Owner: Intracoastal Marine, Inc., Coinjock, NC. More information available from US FCC via Universal Licensing System and Coast Guard Vessel Documentation Center.

Last reported at 2018-Jan-20 21:00 UTC. Time now 2018-Jan-20 21:02 UTC.
Position N 36°45' W 076°18'.

; draft 3 m.

Type: Tug. MMSI: 367091990.

Date/timePositionNaut miles runAvg speedWind from/ knotsBaromVisibWave heightAir tempDewpointWater temp
2018-Jan-20 21:00N 36°45' W 076°18'2 4.1
2018-Jan-20 20:31N 36°47' W 076°18'2 3.9
2018-Jan-20 20:00N 36°49' W 076°17'2 4.2
2018-Jan-20 19:30N 36°51' W 076°18'3 5.7
2018-Jan-20 18:59N 36°53' W 076°20'114 6.6
2018-Jan-20 01:47N 38°47' W 076°28'2 6.5
2018-Jan-20 01:27N 38°49' W 076°27'3 6.1
2018-Jan-20 01:00N 38°51' W 076°26'3 5.8
2018-Jan-20 00:30N 38°54' W 076°25'3 5.7
2018-Jan-20 00:00N 38°57' W 076°24'3 5.9
2018-Jan-19 23:30N 38°60' W 076°23'3 5.6
2018-Jan-19 23:01N 39°02' W 076°23'4 5.8
2018-Jan-19 22:22N 39°06' W 076°23'2 6.1
2018-Jan-19 22:01N 39°08' W 076°24'3 6.0
2018-Jan-19 21:30N 39°11' W 076°26'3 6.2
2018-Jan-19 21:01N 39°12' W 076°30'3 6.3
2018-Jan-19 20:30N 39°13' W 076°33'1 3.0
2018-Jan-19 20:00N 39°12' W 076°35'0 0.0
2018-Jan-19 19:31N 39°12' W 076°35'0 0.0
2018-Jan-19 19:00N 39°12' W 076°35'0 0.0
2018-Jan-19 18:30N 39°12' W 076°35'0 0.0
2018-Jan-19 18:01N 39°12' W 076°35'0 0.0
2018-Jan-19 17:31N 39°12' W 076°35'0 0.0
2018-Jan-19 17:00N 39°12' W 076°35'0 0.0
2018-Jan-19 16:30N 39°12' W 076°35'0 0.0
2018-Jan-19 16:01N 39°12' W 076°35'3 5.8
2018-Jan-19 15:31N 39°12' W 076°31'5 8.6
2018-Jan-19 14:59N 39°11' W 076°26'4 6.7
2018-Jan-19 14:25N 39°07' W 076°24'4 7.6
2018-Jan-19 13:53N 39°03' W 076°23'3 7.4
2018-Jan-19 13:30N 39°00' W 076°23'4 7.7
2018-Jan-19 13:00N 38°57' W 076°24'4 7.8
2018-Jan-19 12:27N 38°53' W 076°26'115 7.3
2018-Jan-18 20:44N 36°58' W 076°20'2 8.5
2018-Jan-18 20:31N 36°56' W 076°20'4 7.9
2018-Jan-18 20:00N 36°52' W 076°20'3 6.5
2018-Jan-18 19:30N 36°49' W 076°17'3 5.4
2018-Jan-18 19:00N 36°47' W 076°19'0 0.5
2018-Jan-18 18:30N 36°47' W 076°19'2 4.2
2018-Jan-18 18:01N 36°49' W 076°17'0 0.0
2018-Jan-18 17:30N 36°49' W 076°17'0 0.0
2018-Jan-18 17:00N 36°49' W 076°17'0 0.0
2018-Jan-18 16:30N 36°49' W 076°17'0 0.0
2018-Jan-18 16:00N 36°49' W 076°17'1 1.2
2018-Jan-18 15:30N 36°49' W 076°18'0 0.3
2018-Jan-18 15:00N 36°49' W 076°17'0 0.0
2018-Jan-18 14:30N 36°49' W 076°17'0 0.0
2018-Jan-18 14:00N 36°49' W 076°17'1 1.3
2018-Jan-18 13:30N 36°49' W 076°17'0 0.0
2018-Jan-18 13:00N 36°48' W 076°17'0 0.0
2018-Jan-18 12:30N 36°48' W 076°17'0 0.0
2018-Jan-18 12:00N 36°49' W 076°17'0 0.0
2018-Jan-18 11:30N 36°49' W 076°17'0 0.0
2018-Jan-18 11:00N 36°48' W 076°17'0 0.0
2018-Jan-18 10:30N 36°49' W 076°17'0 0.0
2018-Jan-18 10:01N 36°49' W 076°17'0 0.0
2018-Jan-18 09:31N 36°49' W 076°17'0 0.0
2018-Jan-18 09:01N 36°49' W 076°17'0 0.0
2018-Jan-18 08:30N 36°49' W 076°17'0 0.0
2018-Jan-18 08:00N 36°49' W 076°17'0 0.0
2018-Jan-18 07:30N 36°49' W 076°17'0 0.0
2018-Jan-18 07:00N 36°49' W 076°17'0 0.0
2018-Jan-18 06:30N 36°49' W 076°17'0 0.0
2018-Jan-18 06:01N 36°48' W 076°17'0 0.0
2018-Jan-18 05:30N 36°49' W 076°17'0 0.0
2018-Jan-18 05:01N 36°48' W 076°17'0 0.0
2018-Jan-18 04:30N 36°49' W 076°17'0 0.0
2018-Jan-18 04:00N 36°49' W 076°17'0 0.0
2018-Jan-18 03:30N 36°49' W 076°17'0 0.0
2018-Jan-18 03:00N 36°49' W 076°17'0 0.0
2018-Jan-18 02:30N 36°49' W 076°17'0 0.0
2018-Jan-18 02:00N 36°49' W 076°17'0 0.0
2018-Jan-18 01:31N 36°49' W 076°17'0 0.0
2018-Jan-18 01:01N 36°49' W 076°17'0 0.0
2018-Jan-18 00:01N 36°49' W 076°17'0 0.0
2018-Jan-17 23:57N 36°49' W 076°17'  
2018-Jan-12 15:00N 36°50' W 076°16'1 1.0
2018-Jan-12 14:30N 36°50' W 076°17'2 3.2
2018-Jan-12 14:00N 36°51' W 076°19'1 1.1
2018-Jan-12 13:30N 36°51' W 076°19'0 0.0
2018-Jan-12 13:00N 36°51' W 076°19'0 0.0
2018-Jan-12 12:30N 36°51' W 076°19'3 5.5
2018-Jan-12 12:00N 36°49' W 076°17'1 2.3
2018-Jan-12 11:30N 36°50' W 076°18'2 0.3
2018-Jan-12 06:08N 36°52' W 076°19'0 0.2
2018-Jan-12 04:32N 36°51' W 076°19'0 8.8
2018-Jan-12 04:30N 36°51' W 076°18'2 4.6
2018-Jan-12 04:00N 36°49' W 076°17'0 0.0
2018-Jan-12 03:30N 36°49' W 076°17'0 0.1
2018-Jan-12 03:00N 36°49' W 076°17'1 1.3
2018-Jan-12 02:30N 36°48' W 076°17'0 0.0
2018-Jan-12 02:00N 36°48' W 076°17'0 0.0
2018-Jan-12 01:30N 36°48' W 076°17'0 0.0
2018-Jan-12 01:00N 36°48' W 076°17'0 0.0
2018-Jan-12 00:30N 36°48' W 076°17'0 0.0
2018-Jan-12 00:00N 36°48' W 076°17'0 0.0
2018-Jan-11 23:30N 36°48' W 076°17'2 4.0
2018-Jan-11 23:00N 36°47' W 076°18'2 3.0
2018-Jan-11 22:30N 36°45' W 076°18'2 3.2
2018-Jan-11 22:00N 36°47' W 076°19'3 6.0
2018-Jan-11 21:30N 36°50' W 076°18'3 6.3
2018-Jan-11 20:58N 36°52' W 076°20'44 7.1
2018-Jan-11 14:45N 37°36' W 076°11'66 6.8
2018-Jan-11 05:01N 38°41' W 076°28'0 6.8
2018-Jan-11 04:58N 38°41' W 076°28'3 6.8
2018-Jan-11 04:30N 38°44' W 076°28'3 6.8
2018-Jan-11 04:00N 38°47' W 076°28'4 6.9
2018-Jan-11 03:30N 38°51' W 076°27'3 6.6
2018-Jan-11 03:00N 38°54' W 076°25'3 6.8
2018-Jan-11 02:30N 38°57' W 076°24'4 7.0
2018-Jan-11 02:00N 39°00' W 076°23'3 6.8
2018-Jan-11 01:30N 39°04' W 076°23'3 6.8
2018-Jan-11 01:00N 39°07' W 076°24'3 6.6
2018-Jan-11 00:30N 39°10' W 076°26'3 6.1
2018-Jan-11 00:00N 39°12' W 076°29'3 6.4
2018-Jan-10 23:30N 39°14' W 076°32'3 6.6
2018-Jan-10 23:00N 39°16' W 076°35'0 0.3
2018-Jan-10 22:30N 39°16' W 076°35'0 0.0
2018-Jan-10 22:00N 39°16' W 076°35'0 0.0
2018-Jan-10 21:30N 39°16' W 076°35'0 0.0
2018-Jan-10 21:00N 39°16' W 076°35'  

Dump ship's entire track history